Dundee, MI

6:49 PM EDT on May 05, 2015 (GMT -0400)
Lambertville | | Change Station
CLOSE
Current Station
Airport
Location: Lambertville,
Elevation: 666 ft
Nearby Weather Stations

Elev 666 ft 41.74 °N, 83.66 °W | Updated 14 minutes ago

Rain
Rain
54 °F
Feels Like 54 °F
N
7
Wind Variable Wind from East

Today
High -- | Low -- °F
--% Chance of Precip.
Yesterday
High -- | Low -- °F
Precip. -- in
6:25 AM 8:37 PM
Waning Gibbous, 97% visible
Pressure 30.25 in
Visibility 10.0 miles
Clouds Scattered Clouds 1300 ft
Overcast 6000 ft
Dew Point 48 °F
Humidity 82%
Rainfall 0.00 in
Snow Depth Not available.
UV 1 out of 12
Pollen 1.90 out of 12
Air Quality Not available.
Flu Activity Regional
METAR KDUH 052235Z AUTO 08006KT 10SM SCT013 OVC060 12/09 A3025 RMK AO2

More Conditions Fewer Conditions

Pressure 30.25 in
Visibility 10.0 miles
Clouds Scattered Clouds 1300 ft
Overcast 6000 ft
Dew Point 48 °F
Humidity 82%
Rainfall 0.00 in
Snow Depth Not available.
UV 1 out of 12
Pollen 1.90 out of 12
Air Quality Not available.
Flu Activity Regional
METAR KDUH 052235Z AUTO 08006KT 10SM SCT013 OVC060 12/09 A3025 RMK AO2

More Conditions Fewer Conditions

10-Day Weather Forecast

Almanac

Astronomy

May. 05, 2015 Rise Set
Actual Time
Civil Twilight
Nautical Twilight
Astronomical Twilight
Moon
Length of Visible Light
Length of Day
Tomorrow will be .
, % of the Moon is Illuminated

Today's Extremes

State Highs State Lows

Community

WunderPhotos

Upload Photos

1,819,000 photos uploaded!

WunderBlogs® & News

Nearby

Air Quality

  Air Quality AQ Index Pollutant
Not available.

Snow Depth

Station Depth Elevation

Earthquake Activity

City Distance Mag. Time & Date
Minimum magnitude displayed is 2.5.

Coastal Water Temperatures

Place Temperature

Stations

Nearby Weather Stations

Station Location Temp. Windchill Dew Point Humidity Wind Precip. Elev Updated Type